Time;durP1;ratioP1;P1;durP2;ratioP2;P2;SDS_P1;SDS_P2;PMS_P1;PMS_P2;Temp;Humidity;BMP_temperature;BMP_pressure;BME280_temperature;BME280_humidity;BME280_pressure;Samples;Min_cycle;Max_cycle;Signal;HPM_P1;HPM_P2
2023/10/06 00:00:19;;;;;;;33.83;12.02;;;;;;;18.40;80.62;101286.56;5052814;28;20057;-78
2023/10/06 00:02:44;;;;;;;40.97;12.80;;;;;;;18.37;81.01;101289.59;5052880;28;20448;-77
2023/10/06 00:05:12;;;;;;;47.00;21.25;;;;;;;18.41;81.00;101287.38;5053157;28;20033;-75
2023/10/06 00:07:40;;;;;;;36.42;18.52;;;;;;;18.37;81.11;101278.69;5053182;28;20017;-78
2023/10/06 00:10:14;;;;;;;30.15;13.38;;;;;;;18.30;80.95;101266.72;5052351;28;20412;-77
2023/10/06 00:12:39;;;;;;;24.67;12.00;;;;;;;18.33;81.00;101280.03;5019592;28;20104;-76
2023/10/06 00:15:08;;;;;;;36.38;12.73;;;;;;;18.33;81.24;101280.03;5052989;28;20460;-78
2023/10/06 00:17:35;;;;;;;27.15;11.27;;;;;;;18.28;81.27;101276.06;5052619;28;20481;-78
2023/10/06 00:20:00;;;;;;;33.95;12.63;;;;;;;18.23;81.29;101273.81;5052642;28;20570;-78
2023/10/06 00:22:26;;;;;;;27.65;13.10;;;;;;;18.24;81.34;101272.81;5052667;28;20057;-78
2023/10/06 00:24:55;;;;;;;31.17;12.90;;;;;;;18.25;81.63;101282.69;5052526;28;20468;-78
2023/10/06 00:27:29;;;;;;;32.85;13.88;;;;;;;18.24;81.86;101275.53;5052538;28;20075;-77
2023/10/06 00:29:55;;;;;;;41.35;15.85;;;;;;;18.31;81.93;101268.44;5052340;28;20032;-77
2023/10/06 00:32:27;;;;;;;42.58;17.98;;;;;;;18.29;82.02;101270.44;5052993;28;20525;-77
2023/10/06 00:34:54;;;;;;;29.98;15.25;;;;;;;18.39;82.22;101284.81;5053395;28;20032;-77
2023/10/06 00:37:23;;;;;;;55.97;24.98;;;;;;;18.40;82.14;101269.34;5052415;28;20025;-78
2023/10/06 00:39:50;;;;;;;30.35;13.57;;;;;;;18.39;82.01;101267.63;5052845;28;20167;-78
2023/10/06 00:42:17;;;;;;;30.67;14.05;;;;;;;18.37;81.78;101270.53;5053982;28;20036;-77
2023/10/06 00:44:46;;;;;;;29.60;12.93;;;;;;;18.39;81.56;101273.06;5054612;28;20049;-78
2023/10/06 00:47:13;;;;;;;32.92;13.65;;;;;;;18.32;81.14;101267.41;5057204;28;20059;-78
2023/10/06 00:49:40;;;;;;;30.88;13.27;;;;;;;18.33;81.15;101271.84;5056706;28;20055;-77
2023/10/06 00:52:08;;;;;;;38.95;15.18;;;;;;;18.32;81.10;101275.56;5021087;28;20128;-78
2023/10/06 00:54:34;;;;;;;39.22;14.93;;;;;;;18.27;81.17;101255.28;5056738;28;20029;-78
2023/10/06 00:57:08;;;;;;;37.50;14.73;;;;;;;18.29;81.19;101256.81;5058372;28;20086;-77
2023/10/06 00:59:35;;;;;;;46.22;15.90;;;;;;;18.33;81.31;101263.69;5061896;28;20048;-78
2023/10/06 01:02:01;;;;;;;35.13;12.55;;;;;;;18.32;81.44;101252.94;5059194;28;20056;-77
2023/10/06 01:04:27;;;;;;;31.50;12.90;;;;;;;18.34;81.41;101257.22;5058418;28;20057;-77
2023/10/06 01:06:55;;;;;;;21.52;11.15;;;;;;;18.35;80.90;101256.19;5057850;28;20025;-77
2023/10/06 01:09:30;;;;;;;28.35;13.02;;;;;;;18.32;80.61;101253.78;5058716;28;20462;-78
2023/10/06 01:11:57;;;;;;;41.40;13.05;;;;;;;18.14;80.28;101220.31;5052451;28;20032;-77
2023/10/06 01:14:27;;;;;;;39.72;14.98;;;;;;;18.25;80.04;101227.38;5052062;28;20114;-77
2023/10/06 01:17:09;;;;;;;30.77;14.18;;;;;;;18.35;79.93;101250.75;5053438;28;20535;-78
2023/10/06 01:19:35;;;;;;;33.28;14.80;;;;;;;18.40;79.75;101253.88;5035052;28;20742;-78
2023/10/06 01:22:15;;;;;;;34.60;13.07;;;;;;;18.39;79.44;101254.88;5052049;28;20025;-78
2023/10/06 01:24:41;;;;;;;27.30;14.05;;;;;;;18.32;79.67;101251.06;5050888;28;20500;-76
2023/10/06 01:27:07;;;;;;;30.40;13.98;;;;;;;18.26;79.73;101251.69;5050814;28;20031;-78
2023/10/06 01:29:34;;;;;;;29.63;12.45;;;;;;;18.25;79.94;101249.16;5050773;28;20032;-77
2023/10/06 01:32:05;;;;;;;31.10;14.65;;;;;;;18.23;80.14;101253.88;5051170;28;20141;-77
2023/10/06 01:34:38;;;;;;;49.47;14.30;;;;;;;18.05;80.60;101232.16;5051030;28;20024;-77
2023/10/06 01:37:08;;;;;;;43.78;14.25;;;;;;;18.14;80.63;101249.38;5051244;28;20028;-77
2023/10/06 01:39:35;;;;;;;29.60;13.02;;;;;;;18.07;80.47;101246.44;5050762;28;20037;-77
2023/10/06 01:42:07;;;;;;;37.55;13.52;;;;;;;18.03;80.73;101245.06;5051058;28;20121;-77
2023/10/06 01:44:35;;;;;;;44.95;14.75;;;;;;;17.82;81.10;101209.16;5050502;28;20429;-78
2023/10/06 01:47:04;;;;;;;40.08;13.43;;;;;;;17.79;81.00;101209.50;5050865;28;20044;-77
2023/10/06 01:49:31;;;;;;;42.75;14.38;;;;;;;18.05;80.86;101253.06;5051085;28;20021;-79
2023/10/06 01:51:57;;;;;;;29.60;13.35;;;;;;;18.03;80.77;101250.50;5032986;28;20033;-77
2023/10/06 01:54:27;;;;;;;34.08;14.13;;;;;;;18.03;80.90;101249.66;5050281;28;20078;-79
2023/10/06 01:56:54;;;;;;;38.25;14.32;;;;;;;18.02;81.13;101247.94;5050299;28;20036;-79
2023/10/06 01:59:20;;;;;;;31.17;13.05;;;;;;;17.93;80.75;101233.41;5050509;28;20027;-77
2023/10/06 02:01:47;;;;;;;35.28;14.07;;;;;;;17.56;80.75;101176.47;5050437;28;20051;-77
2023/10/06 02:04:18;;;;;;;37.10;12.80;;;;;;;17.88;81.24;101244.78;5050331;28;20029;-78
2023/10/06 02:06:48;;;;;;;31.95;13.32;;;;;;;17.91;81.35;101247.19;5050069;28;20100;-77
2023/10/06 02:09:18;;;;;;;36.13;13.40;;;;;;;17.91;80.85;101249.06;5050666;28;20126;-76
2023/10/06 02:11:45;;;;;;;49.95;14.48;;;;;;;17.95;80.67;101253.16;5050039;28;20033;-77
2023/10/06 02:14:12;;;;;;;37.65;14.35;;;;;;;17.97;80.58;101251.16;5050797;28;20032;-76
2023/10/06 02:16:38;;;;;;;41.13;13.18;;;;;;;17.92;80.58;101248.03;5050303;28;20492;-77
2023/10/06 02:19:08;;;;;;;28.40;14.93;;;;;;;17.81;80.65;101218.34;5050123;28;20024;-79
2023/10/06 02:21:37;;;;;;;34.83;14.35;;;;;;;18.02;80.57;101248.78;5050400;28;20033;-77
2023/10/06 02:24:04;;;;;;;50.97;15.65;;;;;;;18.03;80.69;101245.06;5050117;28;20035;-76
2023/10/06 02:26:36;;;;;;;36.88;15.98;;;;;;;17.94;80.62;101224.25;5050278;28;20394;-76
2023/10/06 02:29:02;;;;;;;43.83;14.18;;;;;;;18.00;80.54;101239.94;5050145;28;20028;-77
2023/10/06 02:31:28;;;;;;;32.28;14.05;;;;;;;17.98;80.26;101228.34;5050059;28;20033;-76
2023/10/06 02:33:54;;;;;;;34.47;15.38;;;;;;;18.11;80.18;101246.97;5051109;28;20021;-76
2023/10/06 02:36:21;;;;;;;31.42;16.15;;;;;;;18.14;80.02;101233.91;5051063;28;20037;-77
2023/10/06 02:38:48;;;;;;;80.43;19.52;;;;;;;17.94;79.88;101197.88;5050257;28;20457;-76
2023/10/06 02:41:25;;;;;;;66.03;18.23;;;;;;;18.25;79.54;101233.69;5049856;28;20481;-77
2023/10/06 02:43:53;;;;;;;59.75;16.40;;;;;;;18.30;79.24;101238.63;5049942;28;20110;-78
2023/10/06 02:46:25;;;;;;;51.50;17.67;;;;;;;18.32;78.94;101239.31;5049575;28;20482;-79
2023/10/06 02:48:51;;;;;;;71.50;16.60;;;;;;;18.32;78.53;101245.63;5015912;28;20041;-78
2023/10/06 02:51:20;;;;;;;59.53;18.08;;;;;;;18.33;78.61;101232.84;5049905;28;20036;-79
2023/10/06 02:53:50;;;;;;;58.00;15.95;;;;;;;18.33;78.47;101231.00;5049488;28;20106;-77
2023/10/06 02:56:21;;;;;;;52.53;15.73;;;;;;;18.32;78.56;101228.41;5049367;28;20025;-78
2023/10/06 02:58:46;;;;;;;46.13;15.45;;;;;;;18.33;78.62;101220.09;5049366;28;20033;-78
2023/10/06 03:01:13;;;;;;;35.15;14.80;;;;;;;18.25;78.37;101206.44;5049601;28;20086;-76
2023/10/06 03:03:39;;;;;;;41.95;15.90;;;;;;;18.31;78.38;101222.13;5049574;28;20033;-80
2023/10/06 03:06:07;;;;;;;38.55;15.40;;;;;;;18.25;78.33;101211.88;5014298;28;20044;-77
2023/10/06 03:08:35;;;;;;;43.38;16.15;;;;;;;17.89;78.52;101166.69;5049123;28;20113;-77
2023/10/06 03:11:01;;;;;;;36.80;16.55;;;;;;;18.18;78.52;101210.81;5049438;28;20051;-77
2023/10/06 03:13:33;;;;;;;30.73;13.80;;;;;;;18.17;78.26;101219.97;5049401;28;20055;-79
2023/10/06 03:15:59;;;;;;;34.72;16.13;;;;;;;18.12;78.37;101222.34;5049152;28;20564;-77
2023/10/06 03:18:25;;;;;;;48.00;16.88;;;;;;;18.01;78.43;101198.06;5049835;28;20589;-78
2023/10/06 03:20:57;;;;;;;53.75;16.55;;;;;;;18.10;78.87;101210.75;5050556;28;20021;-76
2023/10/06 03:23:37;;;;;;;45.45;22.88;;;;;;;18.09;78.77;101210.91;5050274;28;20112;-76
2023/10/06 03:26:06;;;;;;;56.72;21.80;;;;;;;18.03;78.74;101201.50;5050036;28;20108;-78
2023/10/06 03:28:36;;;;;;;83.05;21.90;;;;;;;18.08;78.75;101209.19;5032118;28;20449;-77
2023/10/06 03:31:09;;;;;;;71.50;26.83;;;;;;;18.03;78.97;101209.69;5050322;28;20056;-79
2023/10/06 03:33:35;;;;;;;77.47;25.48;;;;;;;17.88;78.93;101178.59;5049976;28;20033;-78
2023/10/06 03:36:01;;;;;;;85.85;28.77;;;;;;;17.99;79.05;101207.41;5049944;28;20079;-78
2023/10/06 03:46:01;;;;;;;74.15;27.60;;;;;;;17.95;79.27;101201.44;5056389;28;20040;-77
2023/10/06 03:48:29;;;;;;;60.28;26.05;;;;;;;17.97;79.32;101201.28;5070640;28;20013;-77
2023/10/06 03:50:56;;;;;;;64.28;27.63;;;;;;;18.01;79.33;101213.59;5071553;28;20029;-77
2023/10/06 03:53:23;;;;;;;73.35;27.50;;;;;;;18.00;79.43;101207.28;5074284;28;20051;-78
2023/10/06 03:55:49;;;;;;;70.35;28.23;;;;;;;18.00;79.62;101201.84;5074682;28;20033;-78
2023/10/06 03:58:17;;;;;;;196.35;43.88;;;;;;;17.88;79.75;101178.59;5054898;28;20025;-77
2023/10/06 04:00:49;;;;;;;97.50;29.15;;;;;;;17.99;79.75;101216.44;5035752;28;20090;-79
2023/10/06 04:03:17;;;;;;;68.55;27.33;;;;;;;17.99;79.60;101205.56;5052643;28;20075;-80
2023/10/06 04:05:50;;;;;;;73.43;25.83;;;;;;;17.86;79.77;101205.09;5053503;28;20108;-82
2023/10/06 04:08:23;;;;;;;65.35;25.38;;;;;;;17.94;79.66;101213.34;5016997;28;20040;-77
2023/10/06 04:10:51;;;;;;;77.65;25.27;;;;;;;17.92;79.49;101213.50;5049643;28;20024;-81
2023/10/06 04:13:17;;;;;;;79.70;27.50;;;;;;;17.84;79.43;101223.47;5049446;28;20037;-77
2023/10/06 04:15:48;;;;;;;87.93;28.48;;;;;;;17.59;79.51;101192.47;5050054;28;20036;-81
2023/10/06 04:18:17;;;;;;;87.90;39.90;;;;;;;17.80;80.08;101219.34;5049846;28;20055;-78
2023/10/06 04:20:44;;;;;;;90.80;42.97;;;;;;;17.78;80.52;101219.50;4988170;28;20038;-79
2023/10/06 04:23:14;;;;;;;91.45;40.25;;;;;;;17.81;81.19;101224.63;4990553;28;20046;-77
2023/10/06 04:25:40;;;;;;;86.45;38.97;;;;;;;17.83;81.06;101221.75;4990608;28;20650;-78
2023/10/06 04:28:08;;;;;;;78.53;34.60;;;;;;;17.90;80.94;101220.13;4990314;28;20581;-77
2023/10/06 04:30:37;;;;;;;72.75;31.88;;;;;;;17.93;80.95;101214.34;4990600;28;20109;-79
2023/10/06 04:33:08;;;;;;;71.65;31.75;;;;;;;17.90;80.82;101214.66;4990257;28;20038;-78
2023/10/06 04:35:34;;;;;;;147.85;35.47;;;;;;;17.72;81.22;101186.63;4990359;28;20108;-78
2023/10/06 04:38:03;;;;;;;115.97;34.70;;;;;;;17.98;81.28;101222.88;4990352;28;20900;-78
2023/10/06 04:40:29;;;;;;;87.53;34.60;;;;;;;17.99;81.02;101226.47;4957538;28;20053;-78
2023/10/06 04:42:56;;;;;;;92.70;34.05;;;;;;;17.74;80.80;101181.88;4989712;28;20454;-78
2023/10/06 04:45:23;;;;;;;81.25;32.03;;;;;;;18.09;80.82;101241.72;4989802;28;20100;-78
2023/10/06 04:47:49;;;;;;;137.90;35.03;;;;;;;18.00;80.97;101222.75;4989984;28;20117;-79
2023/10/06 04:50:16;;;;;;;62.45;29.48;;;;;;;18.14;80.69;101236.63;4988738;28;20121;-79
2023/10/06 04:52:46;;;;;;;119.20;33.67;;;;;;;18.24;80.74;101240.13;5045680;28;20049;-78
2023/10/06 04:55:13;;;;;;;108.28;33.60;;;;;;;18.28;80.55;101241.53;5051766;28;20029;-78
2023/10/06 04:57:41;;;;;;;83.15;29.55;;;;;;;18.23;79.97;101224.78;5051507;28;20468;-78
2023/10/06 05:00:19;;;;;;;77.80;28.90;;;;;;;18.43;79.17;101248.09;5052047;28;20469;-77
2023/10/06 05:02:47;;;;;;;77.38;28.15;;;;;;;18.42;79.28;101243.66;5052273;28;20032;-81
2023/10/06 05:05:20;;;;;;;117.47;34.22;;;;;;;18.50;79.20;101261.94;5050130;28;20551;-79
2023/10/06 05:07:50;;;;;;;116.03;34.85;;;;;;;18.54;79.32;101241.53;5051331;28;20028;-78
2023/10/06 05:10:25;;;;;;;103.57;34.50;;;;;;;18.71;78.92;101251.53;5051426;28;20080;-76
2023/10/06 05:12:54;;;;;;;78.53;32.22;;;;;;;18.84;78.46;101261.97;5052002;28;20056;-78
2023/10/06 05:15:23;;;;;;;103.43;40.88;;;;;;;18.85;77.79;101263.69;5051502;28;20029;-76
2023/10/06 05:17:58;;;;;;;82.18;33.70;;;;;;;18.90;78.11;101266.75;5051377;28;20033;-75
2023/10/06 05:20:31;;;;;;;98.53;36.97;;;;;;;18.75;77.97;101242.00;5051161;28;20078;-76
2023/10/06 05:23:09;;;;;;;102.55;35.42;;;;;;;18.78;77.60;101241.66;5051569;28;20025;-77
2023/10/06 05:25:39;;;;;;;121.63;37.35;;;;;;;19.04;77.38;101266.16;5015671;28;20033;-77
2023/10/06 05:28:07;;;;;;;87.72;36.92;;;;;;;18.95;77.23;101258.97;5050864;28;20065;-76
2023/10/06 05:30:33;;;;;;;67.80;34.42;;;;;;;19.13;77.48;101278.81;5051058;28;20021;-77
2023/10/06 05:33:03;;;;;;;76.70;38.17;;;;;;;19.13;77.51;101257.00;5050881;28;20032;-77
2023/10/06 05:35:35;;;;;;;80.97;38.63;;;;;;;19.10;76.66;101251.88;5050945;28;20017;-78
2023/10/06 05:38:03;;;;;;;76.10;36.35;;;;;;;19.30;75.95;101294.22;5051518;28;20029;-78
2023/10/06 05:40:29;;;;;;;126.90;40.60;;;;;;;19.46;75.56;101294.31;5050815;28;20029;-76
2023/10/06 05:42:55;;;;;;;101.72;36.30;;;;;;;19.51;74.76;101281.00;5050912;28;20448;-77
2023/10/06 05:45:21;;;;;;;64.68;35.75;;;;;;;19.64;74.24;101291.44;5033553;28;20039;-77
2023/10/06 05:47:48;;;;;;;72.88;34.65;;;;;;;19.66;73.71;101285.84;5050580;28;20064;-77
2023/10/06 05:50:27;;;;;;;74.60;34.30;;;;;;;19.50;73.36;101284.78;5051092;28;20108;-76
2023/10/06 05:53:07;;;;;;;78.22;31.73;;;;;;;19.54;73.63;101301.66;5033087;28;20033;-78
2023/10/06 05:55:35;;;;;;;60.53;30.65;;;;;;;19.52;73.40;101299.09;5050685;28;20029;-76
2023/10/06 05:58:14;;;;;;;66.68;31.92;;;;;;;19.55;73.65;101317.00;5050805;28;20095;-78
2023/10/06 06:00:50;;;;;;;90.40;34.63;;;;;;;19.44;73.66;101288.16;5050913;28;20108;-76
2023/10/06 06:03:23;;;;;;;77.50;35.85;;;;;;;19.03;73.56;101215.38;5050484;28;20110;-78
2023/10/06 06:05:50;;;;;;;83.38;35.67;;;;;;;19.72;73.49;101307.00;5050557;28;20039;-76
2023/10/06 06:08:15;;;;;;;83.00;36.83;;;;;;;19.81;72.75;101311.44;5050571;28;20036;-77
2023/10/06 06:10:41;;;;;;;91.38;40.10;;;;;;;19.87;72.16;101310.78;5050098;28;20047;-76
2023/10/06 06:13:07;;;;;;;88.57;44.05;;;;;;;19.94;71.83;101317.25;5050761;28;20071;-78
2023/10/06 06:15:35;;;;;;;102.50;47.45;;;;;;;19.99;71.79;101314.88;5050532;28;20104;-78
2023/10/06 06:18:01;;;;;;;104.60;49.30;;;;;;;20.02;71.47;101314.56;5050362;28;20034;-77
2023/10/06 06:20:29;;;;;;;106.05;48.40;;;;;;;20.06;71.44;101310.44;5050544;28;20396;-78
2023/10/06 06:23:02;;;;;;;110.05;49.67;;;;;;;20.13;71.10;101308.75;5050104;28;20032;-77
2023/10/06 06:25:30;;;;;;;120.07;47.50;;;;;;;20.17;70.69;101301.94;5050279;28;20108;-77
2023/10/06 06:27:59;;;;;;;92.25;43.13;;;;;;;20.26;70.65;101311.00;5049898;28;20090;-77
2023/10/06 06:30:25;;;;;;;83.00;43.38;;;;;;;20.12;70.10;101282.44;5050148;28;20469;-77
2023/10/06 06:32:52;;;;;;;118.28;44.90;;;;;;;20.23;69.71;101300.38;5050320;28;20029;-78
2023/10/06 06:35:22;;;;;;;114.97;51.65;;;;;;;20.10;69.63;101287.25;5050245;28;20441;-76
2023/10/06 06:37:52;;;;;;;107.13;48.13;;;;;;;20.37;69.37;101324.31;5049716;28;20121;-79
2023/10/06 06:40:21;;;;;;;112.90;44.50;;;;;;;20.41;69.70;101309.28;5050137;28;20053;-77
2023/10/06 06:42:48;;;;;;;106.05;43.92;;;;;;;20.49;69.41;101306.53;5049469;28;20044;-79
2023/10/06 06:45:14;;;;;;;111.18;45.42;;;;;;;20.64;68.78;101326.69;5050112;28;20124;-78
2023/10/06 06:47:41;;;;;;;82.18;38.38;;;;;;;20.58;68.50;101311.81;5014568;28;20124;-77
2023/10/06 06:50:09;;;;;;;72.85;34.15;;;;;;;20.61;67.92;101327.88;5049214;28;20021;-77
2023/10/06 06:52:35;;;;;;;70.40;32.13;;;;;;;20.51;68.08;101305.38;5049668;28;20056;-77
2023/10/06 06:55:01;;;;;;;87.10;32.17;;;;;;;20.33;68.50;101271.91;5014309;28;20025;-77
2023/10/06 06:57:26;;;;;;;74.15;31.80;;;;;;;20.49;67.90;101290.13;5049737;28;20098;-77
2023/10/06 06:59:52;;;;;;;63.20;29.77;;;;;;;20.67;67.70;101326.38;5049772;28;20053;-78
2023/10/06 07:02:18;;;;;;;74.68;29.33;;;;;;;20.67;67.68;101326.38;5049410;28;20511;-78
2023/10/06 07:04:45;;;;;;;86.78;28.60;;;;;;;20.70;67.79;101322.41;5049118;28;20036;-78
2023/10/06 07:07:11;;;;;;;74.90;30.23;;;;;;;20.69;67.51;101299.69;5049696;28;20029;-77
2023/10/06 07:09:36;;;;;;;89.57;32.60;;;;;;;20.83;67.62;101315.38;5049346;28;20048;-77
2023/10/06 07:12:03;;;;;;;68.68;29.20;;;;;;;20.88;67.82;101306.66;5049346;28;20025;-78
2023/10/06 07:14:29;;;;;;;67.60;29.35;;;;;;;20.80;67.13;101261.03;5049148;28;20104;-78
2023/10/06 07:16:56;;;;;;;59.80;31.00;;;;;;;21.19;66.55;101315.81;5049230;28;20087;-78
2023/10/06 07:19:22;;;;;;;64.38;29.00;;;;;;;21.27;66.04;101323.13;5049194;28;20108;-79
2023/10/06 07:21:49;;;;;;;79.90;31.20;;;;;;;21.33;65.86;101327.91;5049182;28;20029;-77
2023/10/06 07:24:15;;;;;;;75.35;31.30;;;;;;;21.37;65.39;101327.38;5049375;28;20568;-77
2023/10/06 07:26:43;;;;;;;84.90;33.80;;;;;;;21.26;65.93;101322.28;5049179;28;20028;-77
2023/10/06 07:29:10;;;;;;;82.32;35.15;;;;;;;21.16;66.26;101294.25;5048912;28;20112;-78
2023/10/06 07:31:35;;;;;;;82.00;36.65;;;;;;;21.45;66.02;101316.38;5031181;28;20467;-77
2023/10/06 07:34:05;;;;;;;74.90;36.25;;;;;;;21.41;66.03;101315.03;5048838;28;20028;-78
2023/10/06 07:36:35;;;;;;;79.72;35.72;;;;;;;21.59;65.95;101329.31;5048898;28;20079;-79
2023/10/06 07:39:01;;;;;;;102.85;33.85;;;;;;;21.68;65.79;101336.44;5049280;28;20056;-78
2023/10/06 07:41:27;;;;;;;77.85;34.67;;;;;;;21.92;65.67;101342.84;5049116;28;20448;-76
2023/10/06 07:43:53;;;;;;;74.00;34.13;;;;;;;22.11;64.84;101340.47;5049005;28;20041;-77
2023/10/06 07:46:19;;;;;;;67.68;32.20;;;;;;;22.10;63.92;101321.50;5048875;28;20448;-79
2023/10/06 07:48:45;;;;;;;64.88;30.63;;;;;;;22.49;63.67;101346.88;5048720;28;20079;-77
2023/10/06 07:51:16;;;;;;;104.97;35.42;;;;;;;22.48;63.22;101317.72;5049306;28;20032;-79
2023/10/06 07:53:43;;;;;;;77.75;32.75;;;;;;;22.81;62.82;101336.66;5048888;28;20037;-77
2023/10/06 07:56:09;;;;;;;101.60;33.90;;;;;;;22.95;61.98;101341.31;5052698;28;20028;-79
2023/10/06 07:58:41;;;;;;;57.92;29.58;;;;;;;23.01;62.02;101335.06;5052933;28;20505;-81
2023/10/06 08:01:12;;;;;;;63.95;26.48;;;;;;;23.23;61.14;101343.22;5052506;28;20033;-77
2023/10/06 08:03:39;;;;;;;70.00;27.55;;;;;;;23.28;60.10;101339.88;5052747;28;20025;-77
2023/10/06 08:06:11;;;;;;;75.03;25.27;;;;;;;23.21;59.97;101325.22;5052733;28;20029;-77
2023/10/06 08:08:38;;;;;;;66.57;22.35;;;;;;;23.36;59.94;101342.56;5052589;28;20028;-78
2023/10/06 08:11:08;;;;;;;70.55;21.88;;;;;;;23.48;59.35;101354.78;5052591;28;20509;-77
2023/10/06 08:13:35;;;;;;;70.53;24.25;;;;;;;23.53;59.22;101344.06;5052481;28;20025;-79
2023/10/06 08:16:02;;;;;;;59.30;22.02;;;;;;;23.71;58.56;101347.25;5052357;28;20103;-78
2023/10/06 08:18:31;;;;;;;94.22;24.35;;;;;;;23.81;58.62;101358.78;5052728;28;20029;-78
2023/10/06 08:20:57;;;;;;;61.80;21.58;;;;;;;23.95;58.16;101357.03;5052197;28;20043;-76
2023/10/06 08:23:22;;;;;;;96.30;25.00;;;;;;;24.04;57.71;101341.28;5052483;28;20051;-77
2023/10/06 08:25:49;;;;;;;83.30;22.55;;;;;;;24.11;56.94;101354.09;5034003;28;20108;-77
2023/10/06 08:28:14;;;;;;;39.50;14.77;;;;;;;24.18;54.49;101359.66;5052209;28;20040;-77
2023/10/06 08:30:40;;;;;;;26.67;11.15;;;;;;;24.21;53.16;101364.78;5052254;28;20028;-77
2023/10/06 08:33:09;;;;;;;26.38;11.18;;;;;;;24.28;53.20;101371.16;5051994;28;20021;-78
2023/10/06 08:35:36;;;;;;;35.50;11.70;;;;;;;24.38;52.56;101371.69;5051766;28;20090;-77
2023/10/06 08:38:02;;;;;;;30.38;11.75;;;;;;;24.16;51.93;101334.25;5052182;28;20025;-77
2023/10/06 08:40:29;;;;;;;32.75;11.52;;;;;;;24.38;51.63;101374.44;5051756;28;20021;-78
2023/10/06 08:42:57;;;;;;;48.22;12.73;;;;;;;24.43;50.97;101371.97;5051828;28;20044;-78
2023/10/06 08:45:24;;;;;;;48.35;10.18;;;;;;;24.52;50.52;101368.03;5052153;28;20040;-78
2023/10/06 08:47:53;;;;;;;21.13;9.40;;;;;;;24.58;50.33;101367.25;5051845;28;20048;-77
2023/10/06 08:50:22;;;;;;;24.45;10.73;;;;;;;24.61;50.15;101369.59;5051504;28;20465;-77
2023/10/06 08:52:52;;;;;;;22.80;8.23;;;;;;;24.37;50.16;101375.50;5051629;28;20481;-78
2023/10/06 08:55:25;;;;;;;19.10;9.05;;;;;;;24.58;50.05;101372.75;5051690;28;20036;-77
2023/10/06 08:57:52;;;;;;;46.28;11.90;;;;;;;24.41;50.03;101332.81;5051788;28;20035;-79
2023/10/06 09:00:24;;;;;;;14.65;9.75;;;;;;;24.66;49.65;101358.84;5051669;28;20035;-77
2023/10/06 09:02:51;;;;;;;37.93;10.63;;;;;;;24.69;49.29;101363.94;5051584;28;20091;-77
2023/10/06 09:05:17;;;;;;;20.13;8.20;;;;;;;24.37;49.56;101312.28;5051983;28;20032;-78
2023/10/06 09:07:59;;;;;;;22.77;8.00;;;;;;;24.66;49.75;101356.09;4998702;28;20041;-77
2023/10/06 09:10:26;;;;;;;34.72;9.27;;;;;;;24.74;49.80;101349.56;5051585;28;20036;-77
2023/10/06 09:13:00;;;;;;;16.33;8.15;;;;;;;24.88;48.92;101346.78;5051576;28;20025;-78
2023/10/06 09:15:26;;;;;;;18.70;8.13;;;;;;;25.06;48.49;101353.66;4983691;28;20477;-79
2023/10/06 09:17:53;;;;;;;76.93;14.93;;;;;;;25.05;48.17;101341.81;5051298;28;20036;-79
2023/10/06 09:20:36;;;;;;;23.92;8.63;;;;;;;24.74;48.05;101265.13;4989459;28;20184;-77
2023/10/06 09:23:03;;;;;;;25.58;9.43;;;;;;;25.34;47.35;101340.72;4989255;28;20022;-78
2023/10/06 09:25:41;;;;;;;22.15;8.65;;;;;;;25.41;46.70;101341.59;4973329;28;20046;-79
2023/10/06 09:28:13;;;;;;;19.42;8.15;;;;;;;25.40;45.99;101340.75;4989213;28;20622;-78
2023/10/06 09:30:56;;;;;;;20.85;8.25;;;;;;;25.40;46.12;101328.88;4989096;28;20440;-80
2023/10/06 09:33:40;;;;;;;27.25;7.35;;;;;;;25.44;45.73;101336.50;4989230;28;20035;-78
2023/10/06 09:36:08;;;;;;;22.05;8.23;;;;;;;25.44;45.03;101330.19;4989147;28;20446;-78
2023/10/06 09:38:41;;;;;;;13.52;7.30;;;;;;;25.44;45.37;101331.00;4989249;28;20034;-78
2023/10/06 09:41:07;;;;;;;34.50;10.10;;;;;;;25.48;45.38;101314.06;4988544;28;20050;-80
2023/10/06 09:43:39;;;;;;;25.35;7.82;;;;;;;25.74;45.24;101334.38;4989063;28;20042;-79
2023/10/06 09:46:16;;;;;;;22.00;8.82;;;;;;;25.88;45.17;101332.47;4988404;28;20034;-79
2023/10/06 09:48:45;;;;;;;19.30;8.25;;;;;;;26.05;44.37;101322.78;4988925;28;20104;-77
2023/10/06 09:51:12;;;;;;;29.63;8.77;;;;;;;26.10;44.50;101333.19;5015888;28;20120;-78
2023/10/06 09:53:39;;;;;;;43.75;11.10;;;;;;;26.10;43.93;101291.81;5050646;28;20040;-78
2023/10/06 09:56:07;;;;;;;31.77;11.70;;;;;;;26.47;44.32;101324.34;5032427;28;20033;-78
2023/10/06 09:58:35;;;;;;;17.55;8.45;;;;;;;26.44;43.75;101302.69;5050661;28;20029;-78
2023/10/06 10:01:01;;;;;;;67.90;11.57;;;;;;;26.60;43.68;101320.75;5032526;28;20036;-78
2023/10/06 10:03:28;;;;;;;31.77;9.85;;;;;;;26.46;45.86;101317.97;5032815;28;20037;-77
2023/10/06 10:05:57;;;;;;;19.52;8.38;;;;;;;26.32;46.98;101313.53;5050373;28;20376;-78
2023/10/06 10:08:23;;;;;;;18.95;8.15;;;;;;;26.05;48.01;101316.41;5050785;28;20113;-77
2023/10/06 10:10:52;;;;;;;77.88;13.10;;;;;;;25.73;49.31;101315.25;5051820;28;20075;-78
2023/10/06 10:13:35;;;;;;;15.23;8.13;;;;;;;25.44;49.53;101288.88;5052011;28;20163;-77
2023/10/06 10:16:11;;;;;;;19.20;8.30;;;;;;;25.80;48.19;101307.88;5052164;28;20029;-78
2023/10/06 10:18:48;;;;;;;24.63;8.57;;;;;;;25.66;48.00;101311.63;5050543;28;20021;-78
2023/10/06 10:21:15;;;;;;;32.08;8.80;;;;;;;25.35;47.72;101304.69;5055451;28;20033;-76
2023/10/06 10:23:43;;;;;;;15.25;8.23;;;;;;;25.16;48.76;101304.59;5063467;28;20025;-77
2023/10/06 10:26:28;;;;;;;19.00;8.35;;;;;;;25.16;49.58;101282.59;5064996;28;20025;-77
2023/10/06 10:29:16;;;;;;;28.23;7.85;;;;;;;25.24;50.56;101291.50;5064522;28;20025;-79
2023/10/06 10:31:46;;;;;;;27.73;8.38;;;;;;;25.08;51.33;101296.50;4956559;29;20058;-77
2023/10/06 10:34:25;;;;;;;27.30;9.70;;;;;;;24.96;51.79;101292.59;4955368;29;20540;-78
2023/10/06 10:36:53;;;;;;;24.73;9.98;;;;;;;25.10;52.10;101299.91;4951152;29;20045;-79
2023/10/06 10:39:19;;;;;;;20.17;8.63;;;;;;;25.11;52.50;101288.69;4949511;29;20028;-79
2023/10/06 10:41:45;;;;;;;25.77;9.82;;;;;;;25.02;52.68;101297.31;4949009;29;20121;-79
2023/10/06 10:44:12;;;;;;;23.38;9.82;;;;;;;24.74;53.32;101251.38;4949061;28;20069;-77
2023/10/06 10:46:42;;;;;;;20.50;8.43;;;;;;;25.01;54.03;101290.13;4949136;29;20032;-78
2023/10/06 10:49:13;;;;;;;18.25;8.35;;;;;;;25.08;53.25;101257.94;4949049;29;20042;-78
2023/10/06 10:52:00;;;;;;;19.13;8.52;;;;;;;25.42;53.86;101271.66;4948940;29;20031;-78
2023/10/06 10:54:32;;;;;;;26.73;10.23;;;;;;;25.33;53.20;101265.50;4949606;28;20509;-79
2023/10/06 10:57:14;;;;;;;27.92;8.95;;;;;;;25.31;53.76;101270.38;4949664;29;20109;-77
2023/10/06 11:02:40;;;;;;;22.15;9.23;;;;;;;24.98;53.31;101213.47;4949006;29;20624;-78
2023/10/06 11:05:06;;;;;;;;;;;;;;;25.18;52.83;101267.56;4949253;29;20035;-78
2023/10/06 11:07:31;;;;;;;24.38;9.43;;;;;;;25.02;52.84;101275.28;4949088;29;19934;-79
2023/10/06 11:09:57;;;;;;;31.08;9.15;;;;;;;25.08;52.72;101280.84;5046069;28;20041;-78
2023/10/06 11:12:24;;;;;;;40.00;10.70;;;;;;;25.01;52.54;101268.09;5049135;28;20028;-77
2023/10/06 11:14:56;;;;;;;26.77;10.73;;;;;;;24.98;52.47;101257.50;5050115;28;20033;-78
2023/10/06 11:17:24;;;;;;;18.50;9.75;;;;;;;25.21;52.20;101271.78;5073334;28;20028;-78
2023/10/06 11:23:03;;;;;;;22.63;8.95;;;;;;;25.42;52.80;101257.91;5014404;28;20041;-78
2023/10/06 11:25:32;;;;;;;28.42;9.38;;;;;;;25.48;52.05;101257.06;5010602;28;20187;-78
2023/10/06 11:28:04;;;;;;;36.13;9.88;;;;;;;25.52;51.97;101255.66;4998850;28;20042;-78
2023/10/06 11:30:32;;;;;;;18.38;9.38;;;;;;;25.55;51.86;101249.72;4995572;28;20085;-79